createdAt,value
2022-09-03T00:00:01.440Z,15.51
2022-09-03T00:02:37.809Z,15.57
2022-09-03T00:05:11.761Z,15.44
2022-09-03T00:07:48.181Z,15.46
2022-09-03T00:10:23.867Z,15.46
2022-09-03T00:12:55.351Z,15.35
2022-09-03T00:15:24.990Z,15.34
2022-09-03T00:17:58.795Z,15.46
2022-09-03T00:20:34.444Z,15.42
2022-09-03T00:23:06.378Z,15.34
2022-09-03T00:25:40.242Z,15.22
2022-09-03T00:28:14.198Z,15.19
2022-09-03T00:30:44.246Z,15.18
2022-09-03T00:33:19.348Z,15.14
2022-09-03T00:35:51.310Z,15.22
2022-09-03T00:38:19.236Z,15.14
2022-09-03T00:41:01.734Z,15.15
2022-09-03T00:43:46.188Z,15.07
2022-09-03T00:46:22.437Z,15.09
2022-09-03T00:49:14.798Z,15.10
2022-09-03T00:51:51.155Z,14.96
2022-09-03T00:54:25.441Z,15.10
2022-09-03T00:57:06.246Z,14.98
2022-09-03T00:59:42.433Z,14.97
2022-09-03T01:02:21.021Z,14.97
2022-09-03T01:05:01.816Z,14.92
2022-09-03T01:07:41.172Z,14.88
2022-09-03T01:10:19.863Z,14.89
2022-09-03T01:12:53.656Z,14.86
2022-09-03T01:15:28.617Z,14.80
2022-09-03T01:18:08.484Z,14.76
2022-09-03T01:20:50.872Z,14.90
2022-09-03T01:23:47.426Z,14.92
2022-09-03T01:26:32.461Z,14.86
2022-09-03T01:29:12.329Z,14.89
2022-09-03T01:31:51.622Z,14.92
2022-09-03T01:34:30.566Z,14.99
2022-09-03T01:37:09.822Z,14.89
2022-09-03T01:39:45.501Z,14.89
2022-09-03T01:42:23.730Z,14.99
2022-09-03T01:45:28.018Z,14.96
2022-09-03T01:48:16.702Z,14.97
2022-09-03T01:50:49.486Z,15.15
2022-09-03T01:53:33.629Z,15.30
2022-09-03T01:56:16.183Z,15.34
2022-09-03T01:58:50.130Z,15.34
2022-09-03T02:01:24.859Z,15.41
2022-09-03T02:04:00.115Z,15.34
2022-09-03T02:06:30.999Z,15.30
2022-09-03T02:08:59.281Z,15.28
2022-09-03T02:11:27.394Z,15.24
2022-09-03T02:13:59.867Z,15.28
2022-09-03T02:16:32.847Z,15.23
2022-09-03T02:19:04.617Z,15.39
2022-09-03T02:21:38.005Z,15.44
2022-09-03T02:24:07.203Z,15.40
2022-09-03T02:26:35.297Z,15.38
2022-09-03T02:29:04.745Z,15.43
2022-09-03T02:31:33.154Z,15.57
2022-09-03T02:34:02.769Z,15.71
2022-09-03T02:36:36.298Z,15.69
2022-09-03T02:39:05.079Z,15.81
2022-09-03T02:41:33.641Z,15.97
2022-09-03T02:44:07.035Z,16.11
2022-09-03T02:46:39.873Z,16.08
2022-09-03T02:49:09.545Z,16.11
2022-09-03T02:51:39.412Z,16.15
2022-09-03T02:54:09.137Z,16.15
2022-09-03T02:56:37.425Z,16.08
2022-09-03T02:59:06.047Z,16.01
2022-09-03T03:01:34.274Z,15.90
2022-09-03T03:04:02.350Z,15.93
2022-09-03T03:06:31.809Z,16.04
2022-09-03T03:09:00.097Z,15.91
2022-09-03T03:11:28.231Z,16.17
2022-09-03T03:13:56.265Z,16.16
2022-09-03T03:16:24.966Z,16.19
2022-09-03T03:18:52.922Z,16.11
2022-09-03T03:21:21.023Z,16.10
2022-09-03T03:23:50.384Z,16.17
2022-09-03T03:26:19.908Z,16.17
2022-09-03T03:28:48.791Z,16.03
2022-09-03T03:31:19.349Z,15.98
2022-09-03T03:33:53.111Z,16.05
2022-09-03T03:36:21.588Z,16.12
2022-09-03T03:38:50.904Z,16.07
2022-09-03T03:41:21.855Z,16.16
2022-09-03T03:43:53.717Z,16.13
2022-09-03T03:46:23.210Z,16.04
2022-09-03T03:48:51.790Z,16.06
2022-09-03T03:51:20.438Z,16.10
2022-09-03T03:53:48.373Z,16.12
2022-09-03T03:56:17.604Z,16.27
2022-09-03T03:58:45.522Z,16.28
2022-09-03T04:01:15.823Z,16.37
2022-09-03T04:03:44.842Z,16.42
2022-09-03T04:06:15.082Z,16.41
2022-09-03T04:08:44.105Z,16.40
2022-09-03T04:11:16.072Z,16.37
2022-09-03T04:13:46.826Z,16.40
2022-09-03T04:16:18.107Z,16.37
2022-09-03T04:18:48.977Z,16.39
2022-09-03T04:21:18.715Z,16.37
2022-09-03T04:23:48.090Z,16.21
2022-09-03T04:26:18.364Z,16.29
2022-09-03T04:28:47.717Z,16.32
2022-09-03T04:31:19.972Z,16.34
2022-09-03T04:33:48.052Z,16.28
2022-09-03T04:36:17.754Z,16.34
2022-09-03T04:38:47.903Z,16.39
2022-09-03T04:41:17.802Z,16.38
2022-09-03T04:43:51.531Z,16.41
2022-09-03T04:46:20.263Z,16.44
2022-09-03T04:48:51.110Z,16.45
2022-09-03T04:51:21.316Z,16.50
2022-09-03T04:53:54.535Z,16.52
2022-09-03T04:56:24.281Z,16.63
2022-09-03T04:58:58.859Z,16.72
2022-09-03T05:01:29.834Z,16.69
2022-09-03T05:03:58.217Z,16.80
2022-09-03T05:06:26.676Z,16.77
2022-09-03T05:08:55.960Z,16.83
2022-09-03T05:11:24.566Z,16.84
2022-09-03T05:13:54.522Z,16.90
2022-09-03T05:16:24.749Z,16.85
2022-09-03T05:18:54.015Z,16.89
2022-09-03T05:21:22.954Z,16.94
2022-09-03T05:23:52.085Z,17.01
2022-09-03T05:26:22.329Z,17.12
2022-09-03T05:28:53.912Z,17.21
2022-09-03T05:31:26.122Z,17.26
2022-09-03T05:33:57.687Z,17.20
2022-09-03T05:36:27.208Z,17.21
2022-09-03T05:38:55.841Z,17.19
2022-09-03T05:41:24.579Z,17.18
2022-09-03T05:43:56.083Z,17.21
2022-09-03T05:46:31.662Z,17.30
2022-09-03T05:49:00.454Z,17.43
2022-09-03T05:51:28.796Z,17.56
2022-09-03T05:53:56.774Z,17.65
2022-09-03T05:56:26.430Z,17.82
2022-09-03T05:58:56.250Z,17.98
2022-09-03T06:01:28.611Z,18.15
2022-09-03T06:03:58.168Z,18.24
2022-09-03T06:06:27.125Z,18.22
2022-09-03T06:08:55.983Z,18.26
2022-09-03T06:11:28.040Z,18.19
2022-09-03T06:13:57.062Z,18.17
2022-09-03T06:16:29.085Z,18.15
2022-09-03T06:19:00.802Z,18.14
2022-09-03T06:21:29.106Z,18.19
2022-09-03T06:23:59.580Z,18.25
2022-09-03T06:26:29.251Z,18.24
2022-09-03T06:28:58.056Z,18.25
2022-09-03T06:31:27.953Z,18.14
2022-09-03T06:33:59.667Z,18.02
2022-09-03T06:36:30.262Z,18.11
2022-09-03T06:38:58.589Z,18.16
2022-09-03T06:41:30.751Z,18.15
2022-09-03T06:44:03.302Z,18.10
2022-09-03T06:46:35.125Z,18.24
2022-09-03T06:49:03.589Z,18.33
2022-09-03T06:51:33.324Z,18.33
2022-09-03T06:54:02.816Z,18.33
2022-09-03T06:56:33.007Z,18.45
2022-09-03T06:59:06.966Z,18.51
2022-09-03T07:01:37.354Z,18.60
2022-09-03T07:04:06.812Z,18.62
2022-09-03T07:06:38.547Z,18.56
2022-09-03T07:09:06.530Z,18.62
2022-09-03T07:11:35.907Z,18.63
2022-09-03T07:14:05.342Z,18.54
2022-09-03T07:16:36.867Z,18.46
2022-09-03T07:19:05.441Z,18.28
2022-09-03T07:21:36.657Z,18.24
2022-09-03T07:24:06.126Z,18.17
2022-09-03T07:26:36.215Z,18.22
2022-09-03T07:29:04.249Z,18.25
2022-09-03T07:31:34.597Z,18.44
2022-09-03T07:34:10.039Z,18.55
2022-09-03T07:36:40.911Z,18.54
2022-09-03T07:39:11.287Z,18.61
2022-09-03T07:41:41.280Z,18.66
2022-09-03T07:44:10.019Z,18.66
2022-09-03T07:46:40.296Z,18.43
2022-09-03T07:49:10.433Z,18.44
2022-09-03T07:51:39.938Z,18.50
2022-09-03T07:54:10.820Z,18.38
2022-09-03T07:56:40.315Z,18.48
2022-09-03T07:59:09.289Z,18.28
2022-09-03T08:01:41.208Z,18.40
2022-09-03T08:04:11.666Z,18.41
2022-09-03T08:06:40.544Z,18.42
2022-09-03T08:09:11.248Z,18.33
2022-09-03T08:11:41.523Z,18.30
2022-09-03T08:14:10.853Z,18.27
2022-09-03T08:16:41.703Z,18.37
2022-09-03T08:19:13.537Z,18.35
2022-09-03T08:21:42.604Z,18.31
2022-09-03T08:24:11.762Z,18.31
2022-09-03T08:26:41.863Z,18.29
2022-09-03T08:29:10.511Z,18.20
2022-09-03T08:31:38.483Z,17.91
2022-09-03T08:34:08.516Z,17.67
2022-09-03T08:36:38.994Z,17.77
2022-09-03T08:39:09.904Z,17.61
2022-09-03T08:42:16.214Z,17.58
2022-09-03T08:44:50.502Z,17.44
2022-09-03T08:47:23.135Z,17.35
2022-09-03T08:49:55.706Z,17.34
2022-09-03T08:52:32.322Z,17.40
2022-09-03T08:55:16.095Z,17.41
2022-09-03T08:57:48.663Z,17.48
2022-09-03T09:00:17.807Z,17.62
2022-09-03T09:02:59.311Z,17.79
2022-09-03T09:05:38.412Z,18.05
2022-09-03T09:08:14.735Z,18.07
2022-09-03T09:10:47.962Z,18.35
2022-09-03T09:13:24.587Z,18.54
2022-09-03T09:16:02.488Z,18.67
2022-09-03T09:18:46.775Z,18.81
2022-09-03T09:21:21.935Z,18.96
2022-09-03T09:23:54.126Z,19.32
2022-09-03T09:26:23.356Z,19.83
2022-09-03T09:28:57.891Z,19.99
2022-09-03T09:31:26.249Z,19.73
2022-09-03T09:33:54.976Z,19.57
2022-09-03T09:36:23.736Z,19.52
2022-09-03T09:38:53.107Z,19.68
2022-09-03T09:41:27.589Z,19.90
2022-09-03T09:44:03.062Z,20.00
2022-09-03T09:46:39.527Z,20.45
2022-09-03T09:49:26.148Z,20.74
2022-09-03T09:52:02.817Z,20.61
2022-09-03T09:54:32.045Z,20.63
2022-09-03T09:57:01.939Z,20.52
2022-09-03T09:59:29.806Z,20.47
2022-09-03T10:02:10.312Z,20.34
2022-09-03T10:04:43.964Z,20.19
2022-09-03T10:07:24.363Z,20.00
2022-09-03T10:10:06.830Z,19.99
2022-09-03T10:12:40.068Z,19.94
2022-09-03T10:15:26.660Z,19.75
2022-09-03T10:18:01.311Z,19.75
2022-09-03T10:20:37.329Z,19.69
2022-09-03T10:23:12.524Z,19.78
2022-09-03T10:25:53.630Z,19.46
2022-09-03T10:28:24.338Z,19.51
2022-09-03T10:31:11.522Z,19.66
2022-09-03T10:33:44.236Z,20.01
2022-09-03T10:36:20.082Z,20.36
2022-09-03T10:38:54.969Z,21.75
2022-09-03T10:41:41.182Z,21.99
2022-09-03T10:44:35.543Z,22.32
2022-09-03T10:47:19.676Z,22.66
2022-09-03T10:49:55.227Z,22.80
2022-09-03T10:52:29.115Z,22.43
2022-09-03T10:55:10.307Z,23.15
2022-09-03T10:57:49.596Z,22.96
2022-09-03T11:00:20.143Z,22.18
2022-09-03T11:03:21.136Z,22.23
2022-09-03T11:05:59.839Z,22.40
2022-09-03T11:08:32.523Z,22.60
2022-09-03T11:11:09.032Z,23.22
2022-09-03T11:13:42.445Z,23.11
2022-09-03T11:16:16.577Z,23.35
2022-09-03T11:18:50.005Z,23.19
2022-09-03T11:21:23.027Z,23.35
2022-09-03T11:24:00.509Z,23.62
2022-09-03T11:26:29.372Z,23.62
2022-09-03T11:29:03.610Z,23.32
2022-09-03T11:31:40.608Z,22.99
2022-09-03T11:34:14.184Z,23.64
2022-09-03T11:36:51.342Z,23.94
2022-09-03T11:39:21.952Z,24.25
2022-09-03T11:42:02.127Z,24.83
2022-09-03T11:44:51.116Z,25.01
2022-09-03T11:47:24.542Z,25.11
2022-09-03T11:49:54.415Z,25.10
2022-09-03T11:52:29.555Z,25.49
2022-09-03T11:54:57.826Z,25.28
2022-09-03T11:57:29.734Z,25.53
2022-09-03T12:00:12.862Z,24.88
2022-09-03T12:02:46.492Z,24.80
2022-09-03T12:05:26.264Z,24.04
2022-09-03T12:08:43.545Z,23.81
2022-09-03T12:11:30.436Z,24.47
2022-09-03T12:14:06.464Z,25.15
2022-09-03T12:17:06.303Z,25.28
2022-09-03T12:19:40.925Z,25.35
2022-09-03T12:22:15.031Z,24.40
2022-09-03T12:24:44.984Z,24.31
2022-09-03T12:27:17.628Z,24.61
2022-09-03T12:29:58.119Z,24.98
2022-09-03T12:32:30.110Z,25.24
2022-09-03T12:34:57.962Z,25.09
2022-09-03T12:40:21.577Z,25.53
2022-09-03T12:42:50.474Z,25.14
2022-09-03T12:45:20.954Z,24.69
2022-09-03T12:47:50.737Z,25.48
2022-09-03T12:50:21.209Z,25.41
2022-09-03T12:52:51.854Z,25.83
2022-09-03T12:55:30.587Z,26.42
2022-09-03T12:58:05.518Z,26.02
2022-09-03T13:00:35.702Z,25.84
2022-09-03T13:03:09.634Z,25.48
2022-09-03T13:05:44.609Z,25.39
2022-09-03T13:08:20.067Z,25.31
2022-09-03T13:10:53.747Z,24.97
2022-09-03T13:13:25.446Z,24.83
2022-09-03T13:16:02.060Z,24.78
2022-09-03T13:18:38.070Z,24.87
2022-09-03T13:21:13.796Z,24.59
2022-09-03T13:24:23.673Z,24.24
2022-09-03T13:27:06.033Z,24.42
2022-09-03T13:29:41.051Z,24.68
2022-09-03T13:32:23.157Z,24.58
2022-09-03T13:34:58.063Z,24.47
2022-09-03T13:37:33.829Z,24.34
2022-09-03T13:40:16.013Z,24.02
2022-09-03T13:42:53.439Z,24.13
2022-09-03T13:45:32.151Z,23.88
2022-09-03T13:48:25.522Z,24.13
2022-09-03T13:51:04.317Z,24.31
2022-09-03T13:53:42.933Z,24.33
2022-09-03T13:56:21.417Z,24.29
2022-09-03T13:58:54.973Z,24.78
2022-09-03T14:01:35.794Z,25.40
2022-09-03T14:04:07.132Z,25.52
2022-09-03T14:06:43.151Z,26.21
2022-09-03T14:09:17.316Z,27.23
2022-09-03T14:11:56.311Z,29.36
2022-09-03T14:14:39.006Z,31.39
2022-09-03T14:17:16.176Z,33.43
2022-09-03T14:19:49.664Z,33.45
2022-09-03T14:22:24.089Z,29.76
2022-09-03T14:24:56.454Z,27.86
2022-09-03T14:27:26.563Z,27.33
2022-09-03T14:29:59.485Z,26.47
2022-09-03T14:32:35.698Z,26.25
2022-09-03T14:35:18.000Z,25.56
2022-09-03T14:38:25.175Z,25.42
2022-09-03T14:41:03.444Z,25.51
2022-09-03T14:43:55.223Z,25.02
2022-09-03T14:46:36.392Z,25.22
2022-09-03T14:49:40.168Z,25.19
2022-09-03T14:52:27.668Z,24.73
2022-09-03T14:55:26.823Z,24.36
2022-09-03T14:58:14.864Z,24.35
2022-09-03T15:00:50.764Z,24.58
2022-09-03T15:03:51.346Z,24.83
2022-09-03T15:06:31.308Z,24.88
2022-09-03T15:09:19.237Z,24.49
2022-09-03T15:11:53.757Z,24.87
2022-09-03T15:14:28.332Z,25.33
2022-09-03T15:17:01.785Z,24.93
2022-09-03T15:19:52.568Z,25.08
2022-09-03T15:22:35.756Z,24.50
2022-09-03T15:25:12.545Z,24.69
2022-09-03T15:28:00.336Z,27.17
2022-09-03T15:30:37.841Z,30.77
2022-09-03T15:33:17.104Z,30.54
2022-09-03T15:36:08.173Z,28.34
2022-09-03T15:38:45.091Z,27.85
2022-09-03T15:41:31.000Z,26.50
2022-09-03T15:44:02.699Z,25.79
2022-09-03T15:46:38.571Z,25.27
2022-09-03T15:49:18.291Z,24.85
2022-09-03T15:51:59.345Z,24.57
2022-09-03T15:54:43.009Z,24.50
2022-09-03T15:57:14.988Z,24.65
2022-09-03T15:59:53.451Z,24.70
2022-09-03T16:02:26.030Z,24.34
2022-09-03T16:05:07.233Z,24.17
2022-09-03T16:08:00.430Z,24.18
2022-09-03T16:10:49.382Z,24.26
2022-09-03T16:13:34.118Z,23.99
2022-09-03T16:16:06.726Z,24.09
2022-09-03T16:18:39.889Z,24.31
2022-09-03T16:21:13.470Z,24.23
2022-09-03T16:23:53.277Z,24.53
2022-09-03T16:26:28.229Z,24.61
2022-09-03T16:29:01.563Z,24.55
2022-09-03T16:31:43.203Z,24.54
2022-09-03T16:34:23.302Z,24.48
2022-09-03T16:36:56.623Z,24.57
2022-09-03T16:40:29.561Z,24.55
2022-09-03T16:43:23.498Z,24.43
2022-09-03T16:46:47.092Z,24.06
2022-09-03T16:49:27.756Z,23.80
2022-09-03T16:52:02.648Z,23.69
2022-09-03T16:54:57.309Z,23.59
2022-09-03T16:57:37.971Z,23.40
2022-09-03T17:00:12.580Z,23.22
2022-09-03T17:03:33.818Z,23.15
2022-09-03T17:06:18.703Z,23.11
2022-09-03T17:08:54.290Z,23.09
2022-09-03T17:11:49.579Z,23.12
2022-09-03T17:14:52.544Z,23.09
2022-09-03T17:17:31.020Z,23.11
2022-09-03T17:20:06.070Z,23.04
2022-09-03T17:22:44.904Z,22.98
2022-09-03T17:25:25.484Z,23.02
2022-09-03T17:28:09.363Z,23.03
2022-09-03T17:30:43.244Z,22.98
2022-09-03T17:33:50.988Z,22.82
2022-09-03T17:36:26.985Z,22.85
2022-09-03T17:39:33.428Z,22.58
2022-09-03T17:42:06.287Z,22.51
2022-09-03T17:44:56.121Z,22.17
2022-09-03T17:47:40.442Z,22.02
2022-09-03T17:50:18.088Z,21.89
2022-09-03T17:52:50.634Z,21.70
2022-09-03T17:55:27.020Z,21.56
2022-09-03T17:58:02.100Z,21.54
2022-09-03T18:00:37.495Z,21.51
2022-09-03T18:03:12.379Z,21.33
2022-09-03T18:05:47.135Z,21.30
2022-09-03T18:08:23.107Z,21.18
2022-09-03T18:11:02.030Z,21.07
2022-09-03T18:13:46.614Z,21.04
2022-09-03T18:16:20.180Z,21.03
2022-09-03T18:18:51.513Z,21.07
2022-09-03T18:21:40.367Z,21.07
2022-09-03T18:24:42.158Z,20.97
2022-09-03T18:27:31.335Z,20.89
2022-09-03T18:30:21.857Z,20.99
2022-09-03T18:33:07.248Z,20.95
2022-09-03T18:35:53.191Z,20.76
2022-09-03T18:38:44.568Z,20.70
2022-09-03T18:41:56.999Z,20.66
2022-09-03T18:45:01.735Z,20.64
2022-09-03T18:48:16.361Z,20.66
2022-09-03T18:51:11.840Z,20.52
2022-09-03T18:54:03.535Z,20.71
2022-09-03T18:56:59.629Z,20.56
2022-09-03T19:00:01.038Z,20.47
2022-09-03T19:02:55.939Z,20.38
2022-09-03T19:05:49.877Z,20.31
2022-09-03T19:08:43.737Z,20.28
2022-09-03T19:11:42.672Z,20.24
2022-09-03T19:14:40.212Z,20.22
2022-09-03T19:17:34.600Z,20.24
2022-09-03T19:20:27.517Z,20.29
2022-09-03T19:23:13.011Z,20.17
2022-09-03T19:25:58.333Z,20.16
2022-09-03T19:28:47.236Z,20.09
2022-09-03T19:32:02.654Z,20.11
2022-09-03T19:35:09.682Z,20.05
2022-09-03T19:38:01.948Z,19.97
2022-09-03T19:41:00.970Z,19.94
2022-09-03T19:43:59.349Z,19.87
2022-09-03T19:46:52.138Z,19.86
2022-09-03T19:49:49.759Z,19.82
2022-09-03T19:52:47.684Z,19.70
2022-09-03T19:56:07.134Z,19.74
2022-09-03T19:58:55.310Z,19.63
2022-09-03T20:01:54.988Z,19.54
2022-09-03T20:04:49.125Z,19.50
2022-09-03T20:07:36.179Z,19.56
2022-09-03T20:10:23.072Z,19.49
2022-09-03T20:13:00.293Z,19.41
2022-09-03T20:15:40.035Z,19.38
2022-09-03T20:18:14.826Z,19.38
2022-09-03T20:20:48.165Z,19.33
2022-09-03T20:23:21.944Z,19.24
2022-09-03T20:26:10.278Z,19.12
2022-09-03T20:29:20.578Z,19.05
2022-09-03T20:31:54.666Z,18.98
2022-09-03T20:34:39.837Z,18.98
2022-09-03T20:37:24.395Z,18.99
2022-09-03T20:40:18.175Z,18.98
2022-09-03T20:43:23.405Z,18.90
2022-09-03T20:46:07.867Z,18.79
2022-09-03T20:48:45.785Z,18.73
2022-09-03T20:51:22.733Z,18.60
2022-09-03T20:54:08.816Z,18.51
2022-09-03T20:56:53.312Z,18.47
2022-09-03T20:59:33.897Z,18.37
2022-09-03T21:02:10.109Z,18.21
2022-09-03T21:04:53.585Z,18.26
2022-09-03T21:07:34.570Z,18.31
2022-09-03T21:10:13.393Z,18.26
2022-09-03T21:12:49.655Z,18.17
2022-09-03T21:15:24.269Z,18.10
2022-09-03T21:18:02.946Z,18.12
2022-09-03T21:20:41.829Z,17.94
2022-09-03T21:23:19.783Z,17.96
2022-09-03T21:25:55.198Z,18.00
2022-09-03T21:28:28.273Z,17.97
2022-09-03T21:31:00.569Z,17.91
2022-09-03T21:33:30.855Z,17.82
2022-09-03T21:36:08.664Z,17.80
2022-09-03T21:38:39.461Z,17.80
2022-09-03T21:41:18.269Z,17.68
2022-09-03T21:43:51.600Z,17.56
2022-09-03T21:46:24.897Z,17.43
2022-09-03T21:48:57.300Z,17.32
2022-09-03T21:51:31.283Z,17.37
2022-09-03T21:54:03.943Z,17.37
2022-09-03T21:56:56.690Z,17.39
2022-09-03T21:59:47.201Z,17.31
2022-09-03T22:02:21.662Z,17.32
2022-09-03T22:04:50.792Z,17.27
2022-09-03T22:07:28.303Z,17.19
2022-09-03T22:10:02.697Z,17.05
2022-09-03T22:12:38.404Z,17.07
2022-09-03T22:15:11.381Z,17.10
2022-09-03T22:17:46.238Z,17.10
2022-09-03T22:20:15.918Z,17.05
2022-09-03T22:22:47.787Z,16.93
2022-09-03T22:25:21.182Z,16.99
2022-09-03T22:28:00.720Z,16.95
2022-09-03T22:30:32.685Z,16.99
2022-09-03T22:33:08.146Z,17.01
2022-09-03T22:35:57.592Z,16.85
2022-09-03T22:38:38.718Z,16.84
2022-09-03T22:41:20.182Z,16.78
2022-09-03T22:43:57.908Z,16.66
2022-09-03T22:46:32.166Z,16.66
2022-09-03T22:49:20.275Z,16.61
2022-09-03T22:51:59.087Z,16.56
2022-09-03T22:54:47.441Z,16.53
2022-09-03T22:57:16.910Z,16.64
2022-09-03T22:59:56.365Z,16.52
2022-09-03T23:02:27.696Z,16.44
2022-09-03T23:05:00.852Z,16.32
2022-09-03T23:07:35.009Z,16.38
2022-09-03T23:10:06.190Z,16.37
2022-09-03T23:12:40.058Z,16.23
2022-09-03T23:15:14.265Z,16.26
2022-09-03T23:17:47.066Z,16.21
2022-09-03T23:20:21.087Z,16.18
2022-09-03T23:22:59.723Z,16.09
2022-09-03T23:25:33.297Z,16.03
2022-09-03T23:28:03.999Z,16.00
2022-09-03T23:30:33.230Z,15.90
2022-09-03T23:33:01.554Z,16.01
2022-09-03T23:35:31.089Z,15.98
2022-09-03T23:38:11.430Z,15.98
2022-09-03T23:40:47.015Z,15.89
2022-09-03T23:43:59.232Z,15.65
2022-09-03T23:46:34.774Z,15.71
2022-09-03T23:49:23.870Z,15.73
2022-09-03T23:52:07.755Z,15.75
2022-09-03T23:54:40.268Z,15.73
2022-09-03T23:57:19.367Z,15.74
